Time;durP1;ratioP1;P1;durP2;ratioP2;P2;SDS_P1;SDS_P2;PMS_P1;PMS_P2;Temp;Humidity;BMP_temperature;BMP_pressure;BME280_temperature;BME280_humidity;BME280_pressure;Samples;Min_cycle;Max_cycle;Signal;HPM_P1;HPM_P2
2023/04/24 00:36:14;1025844.00;3.42;1778.30;88250.00;0.29;153.29;;;;;15.90;1.00;;;;;;2266009;61;1939;-90
2023/04/24 00:38:41;459355.00;1.53;791.88;85386.00;0.28;148.34;;;;;16.00;1.00;;;;;;2264499;61;1773;-90
2023/04/24 00:48:49;1022056.00;3.41;1771.57;119840.00;0.40;207.81;;;;;16.40;1.00;;;;;;2266373;61;1186;-91
2023/04/24 01:14:03;1157974.00;3.86;2014.42;35826.00;0.12;62.67;;;;;16.40;1.00;;;;;;2429891;40;3610;-91
2023/04/24 02:46:56;673781.00;2.25;1161.80;0.00;0.00;0.62;;;;;15.70;1.00;;;;;;2266100;61;982;-91
2023/04/24 04:17:46;1350774.00;4.50;2365.33;39529.00;0.13;69.07;;;;;15.30;1.00;;;;;;2507840;40;3470;31
2023/04/24 04:55:31;768846.00;2.56;1326.84;0.00;0.00;0.62;;;;;15.10;1.00;;;;;;2270716;61;1878;-90
2023/04/24 07:07:32;415365.00;1.38;716.22;0.00;0.00;0.62;;;;;22.20;1.00;;;;;;2266739;61;1021;-91
2023/04/24 08:18:15;475787.00;1.59;820.15;0.00;0.00;0.62;;;;;19.10;1.00;;;;;;2269512;55;3665;-88
2023/04/24 08:23:18;621642.00;2.07;1071.60;0.00;0.00;0.62;;;;;18.90;1.00;;;;;;2262440;61;1327;-91
2023/04/24 08:28:20;154812.00;0.52;268.10;0.00;0.00;0.62;;;;;17.40;1.00;;;;;;2441371;40;1765;-89
2023/04/24 08:41:05;1863499.00;6.21;3347.71;129947.00;0.43;225.24;;;;;15.60;1.00;;;;;;1954391;56;3512;-93
2023/04/24 09:16:29;987469.00;3.29;1710.29;71586.00;0.24;124.50;;;;;17.10;1.00;;;;;;2271445;56;1952;-89
2023/04/24 09:24:17;519619.00;1.73;895.61;2203.00;0.01;4.44;;;;;17.30;1.00;;;;;;1562488;41;2692;-90
2023/04/24 09:29:46;974887.00;3.25;1688.04;0.00;0.00;0.62;;;;;17.20;1.00;;;;;;2285899;40;3428;-85
2023/04/24 09:45:10;580752.00;1.94;1001.00;0.00;0.00;0.62;;;;;18.40;1.00;;;;;;2281405;40;3452;-88
2023/04/24 09:50:17;689139.00;2.30;1188.41;0.00;0.00;0.62;;;;;17.80;1.00;;;;;;2288126;40;3476;-90
2023/04/24 09:52:45;380383.00;1.27;656.08;46919.00;0.16;81.86;;;;;17.50;1.00;;;;;;2268152;61;2427;-88
2023/04/24 10:05:24;852985.00;2.84;1473.69;51421.00;0.17;89.64;;;;;17.60;1.00;;;;;;2305372;40;3601;-88
2023/04/24 10:07:51;986227.00;3.29;1708.09;11987.00;0.04;21.39;;;;;18.20;1.00;;;;;;2279358;55;3758;-87
2023/04/24 10:12:56;1647222.00;5.49;2923.33;102148.00;0.34;177.28;;;;;17.70;1.00;;;;;;2318519;56;2098;-87
2023/04/24 10:20:29;1637394.00;5.46;2904.42;79603.00;0.27;138.35;;;;;16.90;1.00;;;;;;2266272;61;1332;-90
2023/04/24 10:22:56;1640953.00;5.47;2911.26;55781.00;0.19;97.18;;;;;16.70;1.00;;;;;;2327425;40;3755;-89
2023/04/24 10:25:24;1828468.00;6.09;3277.86;264161.00;0.88;456.30;;;;;16.70;1.00;;;;;;2294634;40;3789;-88
2023/04/24 10:35:41;1636755.00;5.46;2903.19;89072.00;0.30;154.71;;;;;16.80;1.00;;;;;;2267259;61;1951;-90
2023/04/24 10:38:13;2034422.00;6.78;3695.25;127004.00;0.42;220.16;;;;;17.00;1.00;;;;;;2278576;55;3780;-90
2023/04/24 10:40:44;1933955.00;6.45;3489.58;287118.00;0.96;495.77;;;;;17.20;1.00;;;;;;2317543;40;3746;-89
2023/04/24 10:48:16;417595.00;1.39;720.06;84626.00;0.28;147.03;;;;;17.70;1.00;;;;;;2276744;56;1532;-89
2023/04/24 10:50:47;494813.00;1.65;852.89;0.00;0.00;0.62;;;;;17.60;1.00;;;;;;2283673;40;3571;-88
2023/04/24 10:58:25;241191.00;0.80;416.80;0.00;0.00;0.62;;;;;17.30;1.00;;;;;;2291582;56;2090;-88
2023/04/24 11:03:27;788040.00;2.63;1360.27;0.00;0.00;0.62;;;;;17.10;1.00;;;;;;2270569;40;3553;-88
2023/04/24 11:16:22;869171.00;2.90;1502.04;58610.00;0.20;102.07;;;;;17.10;1.00;;;;;;2266336;61;1981;-89
2023/04/24 11:21:18;760839.00;2.54;1312.91;37510.00;0.13;65.58;;;;;17.50;1.00;;;;;;2266678;61;1728;-88
2023/04/24 11:23:46;57480.00;0.19;100.12;0.00;0.00;0.62;;;;;17.60;1.00;;;;;;2264619;61;2331;-91
2023/04/24 11:26:14;496728.00;1.66;856.19;0.00;0.00;0.62;;;;;17.10;1.00;;;;;;2270360;55;3761;-88
2023/04/24 11:31:37;564089.00;1.88;972.25;0.00;0.00;0.62;;;;;17.10;1.00;;;;;;2267132;61;1315;-90
2023/04/24 11:36:34;907515.00;3.03;1569.32;4065.00;0.01;7.67;;;;;16.70;1.00;;;;;;2278077;40;3484;-89
2023/04/24 11:39:01;188495.00;0.63;326.12;21280.00;0.07;37.49;;;;;17.00;1.00;;;;;;2268868;61;979;-87
2023/04/24 11:41:30;406955.00;1.36;701.76;0.00;0.00;0.62;;;;;17.10;1.00;;;;;;2280806;56;3794;-88
2023/04/24 11:43:58;471577.00;1.57;812.90;0.00;0.00;0.62;;;;;17.20;1.00;;;;;;2311510;40;3829;-90
2023/04/24 11:46:29;1213001.00;4.04;2113.74;154888.00;0.52;268.23;;;;;17.00;1.00;;;;;;2351433;41;3721;-90
2023/04/24 11:48:58;793287.00;2.64;1369.42;38811.00;0.13;67.83;;;;;17.10;1.00;;;;;;2268438;61;1021;-89
2023/04/24 11:51:26;1961950.00;6.54;3546.49;67568.00;0.23;117.56;;;;;17.00;1.00;;;;;;2268414;61;1610;-89
2023/04/24 11:56:23;1603246.00;5.34;2838.94;152304.00;0.51;263.78;;;;;16.50;1.00;;;;;;2266811;61;1876;-88
2023/04/24 12:01:25;311949.00;1.04;538.46;86504.00;0.29;150.27;;;;;16.60;1.00;;;;;;2318044;56;1964;-87
2023/04/24 12:04:18;934874.00;3.12;1617.45;108109.00;0.36;187.57;;;;;17.00;1.00;;;;;;2297240;56;3797;-88
2023/04/24 12:11:58;272883.00;0.91;471.30;0.00;0.00;0.62;;;;;17.60;1.00;;;;;;2304481;41;2150;-88
2023/04/24 12:14:25;377969.00;1.26;651.93;0.00;0.00;0.62;;;;;17.50;1.00;;;;;;2281908;40;3602;-86
2023/04/24 12:16:52;154827.00;0.52;268.13;0.00;0.00;0.62;;;;;17.80;1.00;;;;;;2291323;55;3585;-86
2023/04/24 12:19:24;354917.00;1.18;612.31;0.00;0.00;0.62;;;;;17.40;1.00;;;;;;2275969;40;3608;-88
2023/04/24 12:24:25;675759.00;2.25;1165.23;0.00;0.00;0.62;;;;;16.70;1.00;;;;;;2281358;55;3649;-89
2023/04/24 12:29:38;824742.00;2.75;1424.31;0.00;0.00;0.62;;;;;16.60;1.00;;;;;;2356761;40;3587;-86
2023/04/24 12:34:44;133030.00;0.44;230.55;0.00;0.00;0.62;;;;;16.70;1.00;;;;;;2336898;56;1688;-89
2023/04/24 12:37:12;523625.00;1.75;902.51;0.00;0.00;0.62;;;;;16.80;1.00;;;;;;2286686;40;3546;-89
2023/04/24 12:39:39;420975.00;1.40;725.87;0.00;0.00;0.62;;;;;16.90;1.00;;;;;;2306645;40;3761;-88
2023/04/24 12:42:06;191021.00;0.64;330.47;0.00;0.00;0.62;;;;;16.60;1.00;;;;;;2298254;40;3713;-89
2023/04/24 12:47:04;136657.00;0.46;236.81;0.00;0.00;0.62;;;;;16.20;1.00;;;;;;2266002;61;1298;-88
2023/04/24 12:49:32;463527.00;1.55;799.05;0.00;0.00;0.62;;;;;16.20;1.00;;;;;;2264347;61;946;-90
2023/04/24 12:51:59;1052722.00;3.51;1826.08;40494.00;0.13;70.74;;;;;16.30;1.00;;;;;;2317732;40;3637;-89
2023/04/24 12:57:01;851011.00;2.84;1470.24;82436.00;0.27;143.24;;;;;17.10;1.00;;;;;;2266823;61;1954;-89
2023/04/24 12:59:31;498903.00;1.66;859.94;97403.00;0.32;169.09;;;;;17.20;1.00;;;;;;2347632;40;3795;-88
2023/04/24 13:01:58;582108.00;1.94;1003.34;88736.00;0.30;154.13;;;;;17.50;1.00;;;;;;2322908;40;3720;-88
2023/04/24 13:04:28;545365.00;1.82;939.97;65969.00;0.22;114.79;;;;;17.70;1.00;;;;;;2296958;40;3606;-88
2023/04/24 13:06:55;869604.00;2.90;1502.80;96550.00;0.32;167.62;;;;;17.80;1.00;;;;;;1577513;56;3690;-88
2023/04/24 13:09:24;385366.00;1.28;664.65;0.00;0.00;0.62;;;;;17.40;1.00;;;;;;2276277;61;1655;-89
2023/04/24 13:16:49;531367.00;1.77;915.85;0.00;0.00;0.62;;;;;17.10;1.00;;;;;;2265958;61;1890;-89
2023/04/24 13:19:17;279913.00;0.93;483.39;0.00;0.00;0.62;;;;;16.90;1.00;;;;;;2269584;55;3744;-88
2023/04/24 13:21:45;365974.00;1.22;631.32;0.00;0.00;0.62;;;;;16.90;1.00;;;;;;2283643;40;3623;-89
2023/04/24 13:26:47;401769.00;1.34;692.85;35948.00;0.12;62.88;;;;;16.60;1.00;;;;;;2271547;56;1685;-88
2023/04/24 13:29:14;523820.00;1.75;902.85;14642.00;0.05;25.99;;;;;16.70;1.00;;;;;;2292101;56;3725;-89
2023/04/24 13:31:41;449181.00;1.50;774.37;0.00;0.00;0.62;;;;;16.40;1.00;;;;;;2276361;61;1015;-88
2023/04/24 13:34:09;996073.00;3.32;1725.52;54514.00;0.18;94.99;;;;;16.10;1.00;;;;;;2272447;55;3787;-88
2023/04/24 13:54:29;361680.00;1.21;623.94;87696.00;0.29;152.33;;;;;17.20;1.00;;;;;;2342974;40;2108;-88
2023/04/24 13:57:02;515162.00;1.72;887.93;88184.00;0.29;153.17;;;;;16.90;1.00;;;;;;2278794;56;3769;-87
2023/04/24 13:59:29;517681.00;1.73;892.27;84533.00;0.28;146.87;;;;;16.90;1.00;;;;;;2279713;55;3777;-87
2023/04/24 14:01:56;346188.00;1.15;597.31;0.00;0.00;0.62;;;;;17.00;1.00;;;;;;2296616;40;3776;-87
2023/04/24 14:12:03;580022.00;1.93;999.74;0.00;0.00;0.62;;;;;17.30;1.00;;;;;;2271174;55;3646;-88
2023/04/24 14:14:31;1506495.00;5.02;2655.35;74535.00;0.25;129.60;;;;;17.60;1.00;;;;;;2337032;55;3742;-88
2023/04/24 14:19:27;491647.00;1.64;847.44;0.00;0.00;0.62;;;;;17.30;1.00;;;;;;2286666;40;3481;-86
2023/04/24 14:24:23;1219983.00;4.07;2126.39;30237.00;0.10;52.99;;;;;17.00;1.00;;;;;;1957889;56;3586;-88
2023/04/24 14:26:50;404306.00;1.35;697.21;27974.00;0.09;49.08;;;;;16.60;1.00;;;;;;2282300;40;3633;-89
2023/04/24 14:34:22;273155.00;0.91;471.77;0.00;0.00;0.62;;;;;16.10;1.00;;;;;;934065;40;3305;-90
2023/04/24 14:36:49;279753.00;0.93;483.11;0.00;0.00;0.62;;;;;16.00;1.00;;;;;;2289209;56;3916;-90
2023/04/24 14:41:52;608842.00;2.03;1049.49;47708.00;0.16;83.22;;;;;16.10;1.00;;;;;;2269359;56;1840;-88
2023/04/24 14:44:23;1877060.00;6.26;3374.87;96888.00;0.32;168.20;;;;;16.40;1.00;;;;;;2272362;40;3590;-88
2023/04/24 14:49:20;720854.00;2.40;1243.42;0.00;0.00;0.62;;;;;16.70;1.00;;;;;;1962379;40;3458;-87
2023/04/24 14:51:52;1316426.00;4.39;2302.20;118926.00;0.40;206.23;;;;;16.60;1.00;;;;;;2268663;61;2042;-90
2023/04/24 14:54:22;845617.00;2.82;1460.80;13041.00;0.04;23.22;;;;;16.40;1.00;;;;;;2336967;40;3755;-87
2023/04/24 14:56:50;328282.00;1.09;566.53;0.00;0.00;0.62;;;;;16.50;1.00;;;;;;2284381;56;3719;-90
2023/04/24 15:07:06;1039160.00;3.46;1801.95;0.00;0.00;0.62;;;;;16.50;1.00;;;;;;1972298;56;3556;-88
2023/04/24 15:22:22;1364452.00;4.55;2390.56;4682.00;0.02;8.73;;;;;16.60;1.00;;;;;;1557367;56;3582;-89
2023/04/24 15:27:25;1108418.00;3.69;1925.48;64935.00;0.22;113.01;;;;;16.90;1.00;;;;;;2412407;40;2195;-89
2023/04/24 15:29:59;651019.00;2.17;1122.40;0.00;0.00;0.62;;;;;16.70;1.00;;;;;;2328904;40;3593;-89
2023/04/24 15:34:55;1026589.00;3.42;1779.62;0.00;0.00;0.62;;;;;16.80;1.00;;;;;;1967786;40;3498;-87
2023/04/24 15:37:26;737633.00;2.46;1272.56;37062.00;0.12;64.80;;;;;17.10;1.00;;;;;;2343805;56;3733;-89
2023/04/24 15:39:55;852438.00;2.84;1472.73;152671.00;0.51;264.41;;;;;17.40;1.00;;;;;;2275966;56;3811;-87
2023/04/24 15:42:23;747336.00;2.49;1289.43;93024.00;0.31;161.53;;;;;17.60;1.00;;;;;;2267794;61;1732;-86
2023/04/24 15:44:50;318097.00;1.06;549.03;84655.00;0.28;147.08;;;;;17.70;1.00;;;;;;2275658;55;3747;-88
2023/04/24 15:47:17;544083.00;1.81;937.76;0.00;0.00;0.62;;;;;17.40;1.00;;;;;;2312176;40;3572;-90
2023/04/24 15:55:00;1177964.00;3.93;2050.43;0.00;0.00;0.62;;;;;17.60;1.00;;;;;;2323705;40;3506;-87
2023/04/24 15:57:27;468095.00;1.56;806.91;0.00;0.00;0.62;;;;;17.60;1.00;;;;;;2320542;40;3586;-88
2023/04/24 15:59:55;464492.00;1.55;800.71;0.00;0.00;0.62;;;;;17.60;1.00;;;;;;2274599;55;3711;-89
2023/04/24 16:04:57;563052.00;1.88;970.46;23461.00;0.08;41.26;;;;;17.50;1.00;;;;;;2387018;56;2157;-90
2023/04/24 16:10:09;1178901.00;3.93;2052.12;29777.00;0.10;52.20;;;;;17.30;1.00;;;;;;1968252;56;3565;-87
2023/04/24 16:12:36;594659.00;1.98;1025.00;0.00;0.00;0.62;;;;;17.30;1.00;;;;;;2293260;40;3605;-89
2023/04/24 16:20:15;1849427.00;6.16;3319.59;194215.00;0.65;335.97;;;;;17.20;1.00;;;;;;1510872;40;3204;-88
2023/04/24 16:22:44;768007.00;2.56;1325.38;0.00;0.00;0.62;;;;;17.20;1.00;;;;;;2282106;56;3789;-89
2023/04/24 16:25:12;725487.00;2.42;1251.46;0.00;0.00;0.62;;;;;17.30;1.00;;;;;;2277257;40;3635;-89
2023/04/24 16:30:20;1013717.00;3.38;1756.78;183958.00;0.61;318.31;;;;;17.30;1.00;;;;;;2303687;56;2111;-89
2023/04/24 16:32:48;452571.00;1.51;780.20;3763.00;0.01;7.14;;;;;17.20;1.00;;;;;;2276375;55;3773;-90
2023/04/24 16:37:52;461276.00;1.54;795.18;80579.00;0.27;140.04;;;;;17.30;1.00;;;;;;2412349;55;1905;-89
2023/04/24 16:40:26;598756.00;2.00;1032.07;102930.00;0.34;178.63;;;;;17.10;1.00;;;;;;2282843;55;3764;-90
2023/04/24 16:42:54;477576.00;1.59;823.23;88796.00;0.30;154.23;;;;;17.00;1.00;;;;;;2323769;40;3725;-89
2023/04/24 16:45:23;1123867.00;3.75;1953.16;0.00;0.00;0.62;;;;;17.00;1.00;;;;;;2318097;40;3614;-90
2023/04/24 16:47:50;258411.00;0.86;446.42;0.00;0.00;0.62;;;;;17.10;1.00;;;;;;2268553;61;1617;-90
2023/04/24 16:50:18;331082.00;1.10;571.35;0.00;0.00;0.62;;;;;17.00;1.00;;;;;;2289359;40;3621;-89
2023/04/24 16:52:45;1576602.00;5.26;2788.11;0.00;0.00;0.62;;;;;17.00;1.00;;;;;;2279839;61;1508;-90
2023/04/24 16:57:41;763974.00;2.55;1318.36;0.00;0.00;0.62;;;;;17.00;1.00;;;;;;2269880;61;1899;-88
2023/04/24 17:00:10;400192.00;1.33;690.14;0.00;0.00;0.62;;;;;17.20;1.00;;;;;;2276573;40;3602;-88
2023/04/24 18:32:48;694363.00;2.31;1197.46;88106.00;0.29;153.04;;;;;14.70;1.00;;;;;;2289494;40;3584;-87
2023/04/24 19:25:12;325483.00;1.08;561.72;0.00;0.00;0.62;;;;;13.10;1.00;;;;;;2275888;40;3491;-89
2023/04/24 19:52:33;407511.00;1.36;702.72;0.00;0.00;0.62;;;;;13.30;1.00;;;;;;2266240;61;1417;-88
2023/04/24 19:55:00;154069.00;0.51;266.82;0.00;0.00;0.62;;;;;13.50;1.00;;;;;;2269524;55;3813;-89
2023/04/24 19:57:27;101624.00;0.34;176.37;0.00;0.00;0.62;;;;;13.80;1.00;;;;;;2268403;61;2319;-88
2023/04/24 19:59:54;76587.00;0.26;133.14;0.00;0.00;0.62;;;;;13.70;1.00;;;;;;2268474;61;1574;-88
2023/04/24 20:02:21;114339.00;0.38;198.32;0.00;0.00;0.62;;;;;13.80;1.00;;;;;;2268380;61;1292;-90
2023/04/24 20:04:47;22436.00;0.07;39.49;0.00;0.00;0.62;;;;;14.10;1.00;;;;;;2268552;61;1047;-88
2023/04/24 20:07:14;75458.00;0.25;131.19;0.00;0.00;0.62;;;;;14.10;1.00;;;;;;2268450;61;1077;-89
2023/04/24 20:09:42;85663.00;0.29;148.82;0.00;0.00;0.62;;;;;13.90;1.00;;;;;;2268504;61;1107;-88
2023/04/24 20:12:09;97107.00;0.32;168.58;0.00;0.00;0.62;;;;;13.50;1.00;;;;;;2273077;56;3774;-89
2023/04/24 20:14:36;196856.00;0.66;340.51;0.00;0.00;0.62;;;;;13.60;1.00;;;;;;2268499;61;1018;-89
2023/04/24 20:17:03;137893.00;0.46;238.94;0.00;0.00;0.62;;;;;13.50;1.00;;;;;;2268108;61;2001;-88
2023/04/24 20:21:58;410978.00;1.37;708.68;0.00;0.00;0.62;;;;;13.70;1.00;;;;;;2275954;55;3675;-88
2023/04/24 20:24:25;120608.00;0.40;209.13;0.00;0.00;0.62;;;;;13.60;1.00;;;;;;2268229;61;1027;-89
2023/04/24 20:26:53;127278.00;0.42;220.64;0.00;0.00;0.62;;;;;13.50;1.00;;;;;;2268170;61;1455;-87
2023/04/24 20:29:20;69653.00;0.23;121.16;0.00;0.00;0.62;;;;;13.70;1.00;;;;;;2268215;61;1020;-89
2023/04/24 20:31:47;140627.00;0.47;243.65;0.00;0.00;0.62;;;;;13.80;1.00;;;;;;2267941;61;1660;-92
2023/04/24 20:34:14;136685.00;0.46;236.86;0.00;0.00;0.62;;;;;13.80;1.00;;;;;;2268256;61;1329;-89
2023/04/24 20:36:42;191623.00;0.64;331.50;26280.00;0.09;46.14;;;;;13.80;1.00;;;;;;2268197;61;1195;-89
2023/04/24 20:39:09;156729.00;0.52;271.40;0.00;0.00;0.62;;;;;13.70;1.00;;;;;;2268133;61;903;-89
2023/04/24 20:41:37;419041.00;1.40;722.54;86580.00;0.29;150.40;;;;;13.60;1.00;;;;;;2268213;61;1551;-88
2023/04/24 20:44:05;211952.00;0.71;366.49;12447.00;0.04;22.19;;;;;13.40;1.00;;;;;;2268052;61;1551;-88
2023/04/24 20:46:33;259869.00;0.87;448.92;0.00;0.00;0.62;;;;;13.50;1.00;;;;;;2268156;61;1023;-88
2023/04/24 20:49:01;93164.00;0.31;161.77;0.00;0.00;0.62;;;;;13.60;1.00;;;;;;2268030;61;1067;-88
2023/04/24 20:51:28;192895.00;0.64;333.69;0.00;0.00;0.62;;;;;13.10;1.00;;;;;;2268095;61;1875;-89
2023/04/24 20:53:55;168551.00;0.56;291.77;0.00;0.00;0.62;;;;;12.70;1.00;;;;;;2268063;61;1376;-87
2023/04/24 20:56:23;127674.00;0.43;221.32;0.00;0.00;0.62;;;;;12.70;1.00;;;;;;2268082;61;1721;-89
2023/04/24 20:58:50;92813.00;0.31;161.16;0.00;0.00;0.62;;;;;12.50;1.00;;;;;;2267935;61;2010;-88
2023/04/24 21:01:18;80924.00;0.27;140.63;0.00;0.00;0.62;;;;;12.60;1.00;;;;;;2268123;61;990;-89
2023/04/24 21:03:45;63352.00;0.21;110.27;0.00;0.00;0.62;;;;;12.90;1.00;;;;;;2267988;61;1380;-88
2023/04/24 21:06:12;72725.00;0.24;126.47;0.00;0.00;0.62;;;;;13.10;1.00;;;;;;2268037;61;959;-88
2023/04/24 21:08:39;118691.00;0.40;205.82;0.00;0.00;0.62;;;;;13.30;1.00;;;;;;2268000;61;958;-89
2023/04/24 21:11:06;83356.00;0.28;144.83;0.00;0.00;0.62;;;;;13.20;1.00;;;;;;2268040;61;975;-88
2023/04/24 21:13:33;168086.00;0.56;290.97;0.00;0.00;0.62;;;;;13.10;1.00;;;;;;2267661;61;1462;-89
2023/04/24 21:18:30;611209.00;2.04;1053.58;53084.00;0.18;92.52;;;;;13.30;1.00;;;;;;2265591;61;1892;-88
2023/04/24 21:20:57;32845.00;0.11;57.51;0.00;0.00;0.62;;;;;13.20;1.00;;;;;;2264108;61;1071;-87
2023/04/24 21:23:24;143863.00;0.48;249.23;0.00;0.00;0.62;;;;;13.10;1.00;;;;;;2263941;61;1380;-86
2023/04/24 21:25:52;160006.00;0.53;277.05;0.00;0.00;0.62;;;;;13.00;1.00;;;;;;2269223;55;3799;-90
2023/04/24 21:28:19;55801.00;0.19;97.22;0.00;0.00;0.62;;;;;13.10;1.00;;;;;;2268059;61;1137;-87
2023/04/24 21:30:45;67378.00;0.22;117.23;0.00;0.00;0.62;;;;;13.10;1.00;;;;;;2268190;61;1052;-87
2023/04/24 21:33:12;88606.00;0.30;153.90;0.00;0.00;0.62;;;;;13.20;1.00;;;;;;2267958;61;1368;-89
2023/04/24 21:35:41;105206.00;0.35;182.56;0.00;0.00;0.62;;;;;13.20;1.00;;;;;;2268003;61;989;-88
2023/04/24 21:38:08;115430.00;0.38;200.20;0.00;0.00;0.62;;;;;13.40;1.00;;;;;;2267966;61;2006;-89
2023/04/24 21:40:35;160068.00;0.53;277.16;0.00;0.00;0.62;;;;;13.40;1.00;;;;;;2267934;61;2324;-89
2023/04/24 21:43:02;213824.00;0.71;369.72;0.00;0.00;0.62;;;;;13.30;1.00;;;;;;2267750;61;1381;-89
2023/04/24 21:45:29;232180.00;0.77;401.30;0.00;0.00;0.62;;;;;13.30;1.00;;;;;;2288845;56;3773;-88
2023/04/24 21:47:58;171839.00;0.57;297.43;0.00;0.00;0.62;;;;;13.40;1.00;;;;;;2276126;61;968;-88
2023/04/24 21:50:25;275249.00;0.92;475.37;0.00;0.00;0.62;;;;;13.40;1.00;;;;;;2276044;61;1090;-89
2023/04/24 21:52:53;125010.00;0.42;216.72;0.00;0.00;0.62;;;;;13.50;1.00;;;;;;2275985;61;1292;-88
2023/04/24 21:55:21;68435.00;0.23;119.06;0.00;0.00;0.62;;;;;13.50;1.00;;;;;;2275950;61;976;-90
2023/04/24 21:57:48;180660.00;0.60;312.63;21698.00;0.07;38.21;;;;;13.60;1.00;;;;;;2276042;61;1990;-90
2023/04/24 22:00:16;64122.00;0.21;111.60;0.00;0.00;0.62;;;;;13.60;1.00;;;;;;2275738;61;888;-89
2023/04/24 22:02:43;124035.00;0.41;215.04;0.00;0.00;0.62;;;;;13.50;1.00;;;;;;2276041;61;1376;-88
2023/04/24 22:05:14;376592.00;1.26;649.57;0.00;0.00;0.62;;;;;13.60;1.00;;;;;;2291978;40;3579;-90
2023/04/24 22:07:43;243162.00;0.81;420.19;0.00;0.00;0.62;;;;;13.60;1.00;;;;;;2267681;61;1643;-89
2023/04/24 22:10:12;119131104.00;397.10;68489064.00;0.00;0.00;0.62;;;;;13.60;1.00;;;;;;2267786;61;1142;-89
2023/04/24 22:12:39;83066.00;0.28;144.33;0.00;0.00;0.62;;;;;13.50;1.00;;;;;;2267921;61;1276;-89
2023/04/24 22:15:08;40153.00;0.13;70.15;0.00;0.00;0.62;;;;;13.50;1.00;;;;;;2267903;61;898;-89
2023/04/24 22:17:35;43773.00;0.15;76.42;0.00;0.00;0.62;;;;;13.40;1.00;;;;;;2267767;61;2141;-88
2023/04/24 22:20:04;177586.00;0.59;307.33;0.00;0.00;0.62;;;;;13.30;1.00;;;;;;2267878;61;1095;-88
2023/04/24 22:22:30;165620.00;0.55;286.72;0.00;0.00;0.62;;;;;13.40;1.00;;;;;;2267760;61;2156;-88
2023/04/24 22:24:57;238343.00;0.79;411.90;7623.00;0.03;13.83;;;;;13.40;1.00;;;;;;2268006;61;2236;-89
2023/04/24 22:27:26;177133.00;0.59;306.55;0.00;0.00;0.62;;;;;13.20;1.00;;;;;;2268428;61;1020;-88
2023/04/24 22:29:52;159821.00;0.53;276.73;0.00;0.00;0.62;;;;;13.10;1.00;;;;;;2268354;61;1056;-87
2023/04/24 22:32:19;287772.00;0.96;496.90;13653.00;0.05;24.28;;;;;13.20;1.00;;;;;;2268391;61;1419;-87
2023/04/24 22:34:46;132187.00;0.44;229.10;0.00;0.00;0.62;;;;;13.10;1.00;;;;;;2268501;61;972;-88
2023/04/24 22:37:13;101255.00;0.34;175.74;0.00;0.00;0.62;;;;;13.20;1.00;;;;;;2268505;61;1031;-89
2023/04/24 22:39:40;107736.00;0.36;186.92;0.00;0.00;0.62;;;;;13.20;1.00;;;;;;2268474;61;1924;-87
2023/04/24 22:42:07;180323.00;0.60;312.05;0.00;0.00;0.62;;;;;13.20;1.00;;;;;;2268516;61;1302;-88
2023/04/24 22:44:35;207539.00;0.69;358.90;0.00;0.00;0.62;;;;;13.40;1.00;;;;;;2268348;61;1602;-90
2023/04/24 22:47:05;121909.00;0.41;211.38;0.00;0.00;0.62;;;;;13.30;1.00;;;;;;2268441;61;2297;-89
2023/04/24 22:52:03;225684.00;0.75;390.12;0.00;0.00;0.62;;;;;13.10;1.00;;;;;;2266025;61;1440;-88
2023/04/24 22:54:31;153985.00;0.51;266.67;0.00;0.00;0.62;;;;;13.20;1.00;;;;;;2264538;61;956;-87
2023/04/24 22:59:27;392599.00;1.31;677.08;0.00;0.00;0.62;;;;;13.20;1.00;;;;;;2266279;61;1930;-87
2023/04/24 23:01:57;20714.00;0.07;36.51;0.00;0.00;0.62;;;;;13.20;1.00;;;;;;2264432;61;1032;-87
2023/04/24 23:04:24;267031.00;0.89;461.24;17142.00;0.06;30.32;;;;;13.40;1.00;;;;;;2260474;61;1182;-88
2023/04/24 23:06:51;129495.00;0.43;224.46;0.00;0.00;0.62;;;;;13.40;1.00;;;;;;2260415;61;911;-89
2023/04/24 23:09:18;69670.00;0.23;121.19;0.00;0.00;0.62;;;;;13.10;1.00;;;;;;2272420;55;3758;-88
2023/04/24 23:11:45;186299.00;0.62;322.34;0.00;0.00;0.62;;;;;12.80;1.00;;;;;;2268495;61;929;-89
2023/04/24 23:14:13;300638.00;1.00;519.02;44485.00;0.15;77.65;;;;;12.70;1.00;;;;;;2268482;61;1333;-87
2023/04/24 23:16:41;127890.00;0.43;221.69;0.00;0.00;0.62;;;;;12.70;1.00;;;;;;2268420;61;1068;-89
2023/04/24 23:19:10;159119.00;0.53;275.52;0.00;0.00;0.62;;;;;12.70;1.00;;;;;;2268453;61;1911;-88
2023/04/24 23:21:37;71011.00;0.24;123.51;0.00;0.00;0.62;;;;;12.70;1.00;;;;;;2268296;61;1154;-87
2023/04/24 23:24:04;118925.00;0.40;206.23;0.00;0.00;0.62;;;;;12.70;1.00;;;;;;2268301;61;1738;-88
2023/04/24 23:26:31;218169.00;0.73;377.19;0.00;0.00;0.62;;;;;12.60;1.00;;;;;;2268386;61;1053;-89
2023/04/24 23:28:57;195074.00;0.65;337.44;0.00;0.00;0.62;;;;;12.60;1.00;;;;;;2268298;61;1495;-89
2023/04/24 23:31:24;302389.00;1.01;522.03;0.00;0.00;0.62;;;;;12.60;1.00;;;;;;2268335;61;1607;-88
2023/04/24 23:33:51;114018.00;0.38;197.76;0.00;0.00;0.62;;;;;12.70;1.00;;;;;;2268398;61;1397;-89
2023/04/24 23:36:20;158856.00;0.53;275.07;0.00;0.00;0.62;;;;;12.80;1.00;;;;;;2268268;61;1056;-89
2023/04/24 23:38:47;118581336.00;395.27;67544384.00;0.00;0.00;0.62;;;;;13.00;1.00;;;;;;2268282;61;2002;-89
2023/04/24 23:41:13;148372.00;0.49;257.00;17609.00;0.06;31.13;;;;;12.80;1.00;;;;;;2268417;61;986;-88
2023/04/24 23:46:08;276057.00;0.92;476.76;0.00;0.00;0.62;;;;;13.10;1.00;;;;;;2266177;61;1413;-90
2023/04/24 23:48:35;152655.00;0.51;264.38;0.00;0.00;0.62;;;;;13.20;1.00;;;;;;2264435;61;1040;-89
2023/04/24 23:51:02;169479.00;0.56;293.37;0.00;0.00;0.62;;;;;13.20;1.00;;;;;;2268667;55;3758;-88
2023/04/24 23:53:31;166525.00;0.56;288.28;0.00;0.00;0.62;;;;;13.20;1.00;;;;;;2268221;61;1426;-89
2023/04/24 23:55:58;107580.00;0.36;186.65;0.00;0.00;0.62;;;;;13.10;1.00;;;;;;2268329;61;927;-90
2023/04/24 23:58:25;171347.00;0.57;296.59;0.00;0.00;0.62;;;;;13.00;1.00;;;;;;2268342;61;1927;-87
